createdAt,value
2019-04-11T00:00:09.504Z,12.30
2019-04-11T00:04:19.902Z,12.97
2019-04-11T00:08:30.162Z,12.87
2019-04-11T00:12:40.948Z,13.07
2019-04-11T00:16:50.443Z,14.17
2019-04-11T00:21:00.300Z,12.40
2019-04-11T00:25:09.817Z,13.53
2019-04-11T00:29:20.484Z,14.03
2019-04-11T00:33:30.018Z,15.57
2019-04-11T00:37:39.464Z,13.03
2019-04-11T00:41:48.689Z,13.40
2019-04-11T00:45:58.188Z,13.53
2019-04-11T00:50:07.647Z,15.50
2019-04-11T00:54:18.404Z,14.07
2019-04-11T00:58:28.266Z,14.27
2019-04-11T01:02:40.353Z,14.00
2019-04-11T01:06:50.136Z,13.13
2019-04-11T01:10:59.913Z,9.60
2019-04-11T01:15:11.237Z,9.40
2019-04-11T01:19:20.560Z,7.57
2019-04-11T01:23:29.647Z,7.37
2019-04-11T01:27:39.951Z,6.10
2019-04-11T01:31:53.787Z,5.80
2019-04-11T01:36:04.765Z,5.10
2019-04-11T01:40:15.749Z,5.10
2019-04-11T01:44:25.254Z,4.80
2019-04-11T01:48:50.002Z,3.77
2019-04-11T01:53:00.456Z,3.47
2019-04-11T01:57:11.709Z,3.10
2019-04-11T02:01:38.975Z,3.40
2019-04-11T02:05:49.406Z,3.00
2019-04-11T02:10:00.165Z,3.07
2019-04-11T02:14:15.820Z,2.30
2019-04-11T02:18:21.484Z,2.60
2019-04-11T02:22:52.877Z,2.67
2019-04-11T02:27:21.001Z,1.90
2019-04-11T02:31:30.576Z,2.40
2019-04-11T02:35:42.349Z,2.40
2019-04-11T02:39:51.581Z,2.73
2019-04-11T02:44:03.478Z,2.03
2019-04-11T02:48:13.718Z,2.20
2019-04-11T02:52:25.412Z,2.07
2019-04-11T02:56:36.343Z,2.70
2019-04-11T03:00:46.814Z,2.60
2019-04-11T03:04:56.658Z,2.00
2019-04-11T03:09:07.939Z,2.17
2019-04-11T03:13:18.930Z,2.13
2019-04-11T03:17:34.156Z,1.93
2019-04-11T03:21:41.715Z,1.70
2019-04-11T03:25:50.334Z,1.70
2019-04-11T03:30:02.690Z,2.07
2019-04-11T03:35:03.936Z,2.10
2019-04-11T03:38:42.783Z,1.93
2019-04-11T03:42:46.537Z,1.80
2019-04-11T03:47:02.128Z,2.17
2019-04-11T03:50:57.604Z,1.60
2019-04-11T03:55:09.317Z,1.40
2019-04-11T03:59:22.867Z,1.80
2019-04-11T04:03:31.419Z,1.33
2019-04-11T04:07:40.941Z,1.67
2019-04-11T04:11:51.268Z,1.97
2019-04-11T04:16:17.691Z,1.40
2019-04-11T04:20:35.342Z,1.50
2019-04-11T04:24:46.809Z,1.50
2019-04-11T04:28:57.659Z,1.40
2019-04-11T04:33:07.124Z,1.40
2019-04-11T04:37:18.089Z,1.50
2019-04-11T04:41:37.723Z,1.67
2019-04-11T04:45:57.787Z,1.27
2019-04-11T04:49:52.259Z,1.50
2019-04-11T04:54:01.530Z,1.40
2019-04-11T04:58:10.950Z,1.70
2019-04-11T05:02:20.776Z,1.40
2019-04-11T05:06:30.601Z,1.30
2019-04-11T05:10:40.332Z,1.60
2019-04-11T05:14:51.766Z,1.57
2019-04-11T05:19:00.930Z,1.40
2019-04-11T05:23:10.050Z,1.50
2019-04-11T05:27:20.862Z,1.20
2019-04-11T05:31:31.043Z,1.60
2019-04-11T05:35:41.635Z,1.60
2019-04-11T05:39:52.451Z,1.50
2019-04-11T05:44:03.515Z,1.47
2019-04-11T05:48:21.973Z,1.43
2019-04-11T05:52:31.944Z,1.40
2019-04-11T05:56:41.430Z,1.50
2019-04-11T06:01:14.373Z,1.43
2019-04-11T06:05:31.845Z,1.40
2019-04-11T06:09:39.866Z,1.77
2019-04-11T06:14:03.740Z,1.60
2019-04-11T06:18:27.889Z,2.37
2019-04-11T06:22:31.822Z,1.80
2019-04-11T06:27:06.137Z,2.50
2019-04-11T06:31:47.429Z,2.40
2019-04-11T06:36:15.866Z,2.37
2019-04-11T06:40:34.606Z,2.97
2019-04-11T06:44:58.625Z,2.50
2019-04-11T06:49:14.731Z,2.70
2019-04-11T06:53:32.089Z,2.97
2019-04-11T06:57:42.430Z,3.30
2019-04-11T07:01:53.003Z,3.53
2019-04-11T07:06:06.911Z,3.20
2019-04-11T07:10:16.611Z,3.40
2019-04-11T07:14:44.070Z,3.30
2019-04-11T07:19:24.741Z,3.27
2019-04-11T07:23:51.407Z,3.73
2019-04-11T07:28:19.195Z,3.07
2019-04-11T07:32:29.962Z,3.70
2019-04-11T07:36:55.890Z,3.47
2019-04-11T07:41:23.912Z,3.87
2019-04-11T07:45:49.650Z,4.17
2019-04-11T07:50:00.053Z,4.23
2019-04-11T07:54:23.301Z,3.80
2019-04-11T07:58:42.075Z,4.70
2019-04-11T08:03:08.113Z,4.30
2019-04-11T08:07:44.840Z,4.50
2019-04-11T08:12:15.226Z,4.57
2019-04-11T08:16:45.114Z,5.23
2019-04-11T08:21:10.562Z,4.23
2019-04-11T08:25:25.763Z,4.60
2019-04-11T08:29:35.938Z,5.07
2019-04-11T08:33:46.710Z,5.33
2019-04-11T08:38:02.896Z,4.50
2019-04-11T08:42:28.117Z,4.40
2019-04-11T08:46:40.284Z,4.67
2019-04-11T08:50:53.146Z,4.90
2019-04-11T08:55:23.371Z,4.73
2019-04-11T08:59:44.520Z,4.50
2019-04-11T09:04:18.387Z,4.30
2019-04-11T09:08:40.775Z,6.33
2019-04-11T09:13:00.560Z,5.13
2019-04-11T09:17:21.460Z,5.53
2019-04-11T09:21:48.672Z,6.50
2019-04-11T09:26:25.632Z,5.83
2019-04-11T09:30:56.920Z,5.93
2019-04-11T09:35:12.529Z,6.03
2019-04-11T09:39:48.856Z,6.40
2019-04-11T09:44:00.163Z,6.53
2019-04-11T09:48:35.737Z,5.97
2019-04-11T09:52:47.396Z,5.70
2019-04-11T09:57:13.127Z,5.70
2019-04-11T10:01:40.793Z,6.23
2019-04-11T10:06:07.143Z,6.20
2019-04-11T10:10:46.759Z,5.93
2019-04-11T10:14:56.057Z,5.90
2019-04-11T10:19:25.882Z,4.97
2019-04-11T10:23:58.962Z,5.60
2019-04-11T10:28:33.458Z,5.80
2019-04-11T10:32:47.646Z,6.30
2019-04-11T10:37:05.582Z,5.30
2019-04-11T10:41:35.821Z,5.47
2019-04-11T10:46:05.597Z,6.03
2019-04-11T10:50:19.598Z,6.33
2019-04-11T10:54:29.741Z,6.90
2019-04-11T10:59:02.168Z,5.13
2019-04-11T11:03:18.188Z,5.03
2019-04-11T11:07:30.763Z,5.27
2019-04-11T11:11:46.940Z,6.43
2019-04-11T11:15:59.887Z,6.23
2019-04-11T11:20:38.533Z,6.70
2019-04-11T11:25:04.827Z,5.77
2019-04-11T11:29:32.320Z,6.00
2019-04-11T11:33:42.688Z,5.97
2019-04-11T11:37:57.447Z,7.40
2019-04-11T11:42:23.159Z,6.20
2019-04-11T11:46:40.425Z,6.83
2019-04-11T11:50:51.466Z,5.53
2019-04-11T11:55:02.211Z,6.53
2019-04-11T11:59:32.316Z,5.97
2019-04-11T12:04:05.752Z,5.77
2019-04-11T12:08:32.753Z,6.37
2019-04-11T12:12:55.992Z,6.90
2019-04-11T12:17:23.229Z,6.80
2019-04-11T12:21:35.179Z,7.30
2019-04-11T12:25:45.988Z,6.83
2019-04-11T12:30:13.463Z,5.53
2019-04-11T12:34:37.074Z,6.40
2019-04-11T12:39:13.189Z,6.53
2019-04-11T12:43:22.450Z,6.80
2019-04-11T12:47:40.154Z,7.23
2019-04-11T12:52:05.147Z,6.50
2019-04-11T12:56:30.165Z,7.17
2019-04-11T13:00:55.075Z,6.93
2019-04-11T13:05:04.915Z,9.23
2019-04-11T13:09:29.414Z,9.87
2019-04-11T13:13:56.842Z,10.93
2019-04-11T13:18:17.133Z,12.87
2019-04-11T13:22:27.302Z,13.73
2019-04-11T13:26:52.715Z,15.47
2019-04-11T13:31:20.397Z,18.03
2019-04-11T13:35:48.184Z,17.40
2019-04-11T13:40:07.671Z,20.57
2019-04-11T13:44:21.333Z,19.80
2019-04-11T13:49:00.529Z,24.80
2019-04-11T13:53:33.636Z,24.30
2019-04-11T13:58:01.636Z,28.07
2019-04-11T14:02:19.513Z,31.77
2019-04-11T14:06:30.679Z,32.57
2019-04-11T14:10:41.307Z,28.13
2019-04-11T14:15:12.151Z,27.13
2019-04-11T14:19:34.105Z,27.30
2019-04-11T14:24:01.554Z,25.63
2019-04-11T14:28:11.160Z,26.33
2019-04-11T14:32:30.565Z,33.50
2019-04-11T14:37:10.166Z,28.53
2019-04-11T14:41:36.480Z,30.33
2019-04-11T14:46:07.485Z,33.27
2019-04-11T14:50:17.266Z,33.07
2019-04-11T14:54:49.256Z,30.87
2019-04-11T14:59:16.080Z,31.13
2019-04-11T15:03:58.253Z,30.17
2019-04-11T15:08:08.135Z,31.47
2019-04-11T15:12:20.178Z,30.57
2019-04-11T15:16:50.816Z,29.90
2019-04-11T15:21:11.197Z,31.73
2019-04-11T15:25:44.633Z,39.07
2019-04-11T15:29:54.119Z,36.07
2019-04-11T15:34:24.955Z,38.00
2019-04-11T15:38:58.576Z,37.00
2019-04-11T15:43:43.432Z,40.93
2019-04-11T15:48:10.480Z,37.57
2019-04-11T15:52:22.992Z,40.67
2019-04-11T15:56:49.256Z,40.20
2019-04-11T16:01:20.025Z,37.57
2019-04-11T16:05:50.433Z,44.53
2019-04-11T16:09:59.783Z,41.37
2019-04-11T16:14:39.358Z,47.30
2019-04-11T16:19:05.396Z,44.57
2019-04-11T16:23:31.531Z,46.30
2019-04-11T16:28:08.342Z,48.53
2019-04-11T16:32:42.959Z,48.37
2019-04-11T16:37:18.019Z,45.30
2019-04-11T16:41:42.161Z,47.10
2019-04-11T16:46:25.383Z,47.03
2019-04-11T16:50:35.079Z,49.07
2019-04-11T16:54:45.283Z,49.97
2019-04-11T16:58:57.671Z,51.27
2019-04-11T17:03:08.950Z,50.37
2019-04-11T17:07:30.310Z,49.30
2019-04-11T17:11:39.707Z,47.40
2019-04-11T17:15:48.804Z,52.03
2019-04-11T17:19:58.604Z,51.37
2019-04-11T17:24:08.247Z,54.90
2019-04-11T17:28:17.866Z,54.17
2019-04-11T17:32:27.492Z,54.17
2019-04-11T17:36:37.129Z,55.57
2019-04-11T17:40:46.682Z,53.37
2019-04-11T17:44:56.528Z,56.73
2019-04-11T17:49:05.888Z,56.57
2019-04-11T17:53:15.133Z,57.30
2019-04-11T17:57:26.934Z,60.70
2019-04-11T18:01:37.778Z,57.47
2019-04-11T18:05:47.552Z,59.50
2019-04-11T18:09:57.123Z,55.80
2019-04-11T18:14:06.478Z,56.07
2019-04-11T18:18:15.772Z,57.00
2019-04-11T18:22:25.635Z,51.30
2019-04-11T18:26:35.217Z,51.10
2019-04-11T18:30:44.961Z,47.00
2019-04-11T18:34:54.491Z,48.43
2019-04-11T18:39:05.931Z,46.73
2019-04-11T18:43:16.260Z,43.93
2019-04-11T18:47:26.571Z,46.00
2019-04-11T18:51:36.478Z,43.73
2019-04-11T18:55:46.242Z,46.10
2019-04-11T18:59:56.639Z,43.80
2019-04-11T19:04:06.156Z,44.30
2019-04-11T19:08:16.683Z,43.77
2019-04-11T19:12:26.151Z,39.67
2019-04-11T19:16:36.073Z,41.13
2019-04-11T19:20:49.978Z,42.00
2019-04-11T19:24:57.178Z,43.40
2019-04-11T19:29:07.917Z,40.20
2019-04-11T19:33:19.262Z,40.87
2019-04-11T19:37:28.951Z,39.93
2019-04-11T19:41:38.297Z,39.10
2019-04-11T19:45:50.038Z,33.80
2019-04-11T19:49:59.295Z,35.07
2019-04-11T19:54:08.525Z,33.23
2019-04-11T19:58:18.939Z,30.27
2019-04-11T20:02:28.830Z,30.90
2019-04-11T20:06:38.479Z,30.57
2019-04-11T20:10:48.128Z,28.57
2019-04-11T20:14:57.533Z,28.50
2019-04-11T20:19:07.102Z,27.30
2019-04-11T20:23:16.636Z,24.07
2019-04-11T20:27:26.063Z,25.10
2019-04-11T20:31:35.319Z,23.70
2019-04-11T20:35:45.357Z,23.63
2019-04-11T20:39:55.021Z,21.80
2019-04-11T20:44:04.488Z,19.77
2019-04-11T20:48:13.683Z,19.23
2019-04-11T20:52:23.165Z,19.53
2019-04-11T20:56:33.245Z,18.93
2019-04-11T21:00:50.211Z,17.23
2019-04-11T21:04:54.448Z,16.70
2019-04-11T21:09:04.327Z,18.07
2019-04-11T21:13:14.143Z,16.93
2019-04-11T21:17:23.745Z,16.57
2019-04-11T21:21:34.512Z,19.20
2019-04-11T21:25:43.717Z,16.77
2019-04-11T21:29:53.210Z,19.80
2019-04-11T21:34:03.871Z,18.77
2019-04-11T21:38:14.278Z,18.03
2019-04-11T21:42:23.964Z,16.93
2019-04-11T21:46:37.274Z,17.53
2019-04-11T21:50:45.042Z,17.50
2019-04-11T21:54:54.776Z,16.70
2019-04-11T21:59:03.882Z,17.03
2019-04-11T22:03:14.105Z,16.20
2019-04-11T22:07:23.586Z,17.87
2019-04-11T22:11:33.301Z,17.27
2019-04-11T22:15:43.191Z,16.83
2019-04-11T22:19:52.481Z,16.77
2019-04-11T22:24:01.957Z,16.00
2019-04-11T22:28:11.139Z,17.80
2019-04-11T22:32:20.768Z,15.97
2019-04-11T22:36:32.199Z,16.53
2019-04-11T22:40:41.390Z,17.73
2019-04-11T22:44:51.192Z,16.43
2019-04-11T22:49:01.527Z,16.17
2019-04-11T22:53:13.157Z,17.07
2019-04-11T22:57:22.605Z,17.40
2019-04-11T23:01:32.592Z,16.10
2019-04-11T23:05:41.988Z,17.70
2019-04-11T23:09:52.237Z,18.00
2019-04-11T23:14:01.870Z,18.97
2019-04-11T23:18:13.896Z,17.40
2019-04-11T23:22:22.453Z,16.43
2019-04-11T23:26:32.491Z,18.73
2019-04-11T23:30:41.655Z,17.80
2019-04-11T23:34:52.709Z,17.60
2019-04-11T23:39:01.923Z,17.70
2019-04-11T23:43:11.407Z,18.00
2019-04-11T23:47:23.177Z,18.07
2019-04-11T23:51:32.706Z,18.00
2019-04-11T23:55:41.624Z,18.03
2019-04-11T23:59:52.467Z,17.40
